world map with SBPF marked

SBPF - Airport

This information may not be accurate or current and is not valid for navigation or flight planning. No warranty of fitness for any purpose is made or implied.

flag of Rio Grande do Sulflag of Brazil

Donate via PayPal

Additional information is available on the NEW Great Circle Mapper

Location
City:  Passo Fundo, Rio Grande do Sul, Brazil
Name:Lauro Kurtz
ICAO / IATA:SBPF / PFB

Details
Type:Airport (Aerodrome, Airfield)
Latitude:28°14'38"S (-28.243988)
Longitude:52°19'36"W (-52.326557)
Datum:WGS 1984
Elevation:2376 ft (724 m)
Runways:1
Longest:5577 × 75 ft (1700 × 23 m)

Time
Timezone:UTC+31:08 (DST+34:08)
Local Time:

Weather
METAR:SBPF  041400Z 11018KT 9999 BKN020 24/18 Q1021

Related Locations
Nearby:
Farthest:TKN: 12364 mi / 19898 km
Tokunoshima [Tokunoshima Airport], Satsunan Islands, 46, JP

Find:

   beyond  
but within

Other Information
Maps:
Sources:

  


 


Great Circle Mapper   Great Circle Mapper
Great Circle Mapper FAQ   Great Circle Mapper FAQ
  Karl's Home Page
KLSē   KLSē Home
   GC on Facebook
Airlines of the World   Airlines of the World
Donate via PayPal


Copyright © 2004-2020, Karl L. Swartz. All rights reserved.
All trademarks mentioned herein belong to their respective owners.

Please see credits for attribution and copyright information.

Karl Swartz <karl@kls2.com>
  Powered by FreeBSD
Valid HTML 4.01!
Labeled with ICRA
hCard Microformat
Geo Microformat